Time;durP1;ratioP1;P1;durP2;ratioP2;P2;SDS_P1;SDS_P2;PMS_P1;PMS_P2;Temp;Humidity;BMP_temperature;BMP_pressure;BME280_temperature;BME280_humidity;BME280_pressure;Samples;Min_cycle;Max_cycle;Signal;HPM_P1;HPM_P2
2023/04/11 00:01:33;;;;;;;;;;;10.60;99.90;;;;;;5020904;28;19925;-90
2023/04/11 00:03:59;;;;;;;;;;;10.50;99.90;;;;;;5012037;28;20331;-89
2023/04/11 00:06:26;;;;;;;;;;;10.50;99.90;;;;;;5028130;28;19979;-91
2023/04/11 00:08:55;;;;;;;;;;;10.50;99.90;;;;;;5032308;28;19929;-89
2023/04/11 00:11:22;;;;;;;;;;;10.50;99.90;;;;;;5007296;28;19934;-92
2023/04/11 00:13:49;;;;;;;;;;;10.50;99.90;;;;;;5008508;28;20429;-90
2023/04/11 00:16:18;;;;;;;;;;;10.50;99.90;;;;;;5008791;28;19929;-89
2023/04/11 00:18:45;;;;;;;;;;;10.50;99.90;;;;;;5007329;28;20023;-91
2023/04/11 00:21:11;;;;;;;;;;;10.50;99.90;;;;;;5027329;28;19928;-91
2023/04/11 00:23:38;;;;;;;;;;;10.50;99.90;;;;;;5024328;28;19925;-93
2023/04/11 00:26:07;;;;;;;;;;;10.50;99.90;;;;;;5026109;28;19979;-90
2023/04/11 00:28:34;;;;;;;;;;;10.50;99.90;;;;;;5013425;28;19925;-91
2023/04/11 00:31:02;;;;;;;;;;;10.50;99.90;;;;;;5014089;28;20011;-90
2023/04/11 00:33:28;;;;;;;;;;;10.50;99.90;;;;;;5002245;28;19929;-92
2023/04/11 00:35:55;;;;;;;;;;;10.50;99.90;;;;;;5028576;28;19933;-89
2023/04/11 00:38:22;;;;;;;;;;;10.50;99.90;;;;;;5016847;28;20365;-91
2023/04/11 00:40:49;;;;;;;;;;;10.50;99.90;;;;;;5032103;28;20082;-91
2023/04/11 00:43:17;;;;;;;;;;;10.50;99.90;;;;;;5028747;28;19936;-91
2023/04/11 00:45:44;;;;;;;;;;;10.50;99.90;;;;;;5023633;28;20024;-90
2023/04/11 00:48:11;;;;;;;;;;;10.50;99.90;;;;;;5013739;28;20392;-91
2023/04/11 00:50:40;;;;;;;;;;;10.40;99.90;;;;;;5005936;28;20425;-90
2023/04/11 00:53:08;;;;;;;;;;;10.50;99.90;;;;;;5005342;28;20041;-93
2023/04/11 00:55:35;;;;;;;;;;;10.40;99.90;;;;;;5012227;28;19972;-90
2023/04/11 00:58:02;;;;;;;;;;;10.40;99.90;;;;;;5014600;28;19931;-90
2023/04/11 01:00:31;;;;;;;;;;;10.40;99.90;;;;;;5007865;28;20430;-90
2023/04/11 01:02:58;;;;;;;;;;;10.40;99.90;;;;;;5012156;28;19972;-89
2023/04/11 01:05:25;;;;;;;;;;;10.40;99.90;;;;;;5009330;28;19933;-90
2023/04/11 01:07:54;;;;;;;;;;;10.40;99.90;;;;;;5018668;28;19951;-90
2023/04/11 01:10:21;;;;;;;;;;;10.40;99.90;;;;;;5008151;28;19968;-90
2023/04/11 01:12:48;;;;;;;;;;;10.40;99.90;;;;;;5016246;28;20023;-91
2023/04/11 01:15:15;;;;;;;;;;;10.40;99.90;;;;;;5012593;28;19930;-91
2023/04/11 01:17:44;;;;;;;;;;;10.40;99.90;;;;;;5025169;28;19947;-90
2023/04/11 01:20:11;;;;;;;;;;;10.30;99.90;;;;;;4998769;28;19926;-91
2023/04/11 01:22:40;;;;;;;;;;;10.30;99.90;;;;;;5028594;28;19926;-91
2023/04/11 01:25:09;;;;;;;;;;;10.30;99.90;;;;;;5011316;28;19924;-89
2023/04/11 01:27:36;;;;;;;;;;;10.30;99.90;;;;;;5009606;28;19933;-92
2023/04/11 01:30:03;;;;;;;;;;;10.30;99.90;;;;;;5007275;28;19925;-91
2023/04/11 01:32:30;;;;;;;;;;;10.30;99.90;;;;;;5011434;28;20411;-91
2023/04/11 01:34:57;;;;;;;;;;;10.30;99.90;;;;;;5019459;28;19925;-90
2023/04/11 01:37:24;;;;;;;;;;;10.30;99.90;;;;;;5036850;28;19925;-92
2023/04/11 01:39:51;;;;;;;;;;;10.30;99.90;;;;;;5012936;28;20394;-89
2023/04/11 01:42:20;;;;;;;;;;;10.30;99.90;;;;;;5010821;28;19925;-91
2023/04/11 01:44:48;;;;;;;;;;;10.30;99.90;;;;;;4998380;28;19939;-91
2023/04/11 01:47:15;;;;;;;;;;;10.30;99.90;;;;;;5012158;28;19926;-90
2023/04/11 01:49:42;;;;;;;;;;;10.30;99.90;;;;;;5013108;28;20370;-89
2023/04/11 01:52:09;;;;;;;;;;;10.30;99.90;;;;;;5004592;28;19952;-89
2023/04/11 01:54:36;;;;;;;;;;;10.30;99.90;;;;;;5019200;28;19968;-91
2023/04/11 01:57:05;;;;;;;;;;;10.20;99.90;;;;;;5010583;28;20084;-91
2023/04/11 01:59:33;;;;;;;;;;;10.20;99.90;;;;;;5008624;28;20033;-91
2023/04/11 02:02:00;;;;;;;;;;;10.20;99.90;;;;;;5015927;28;19933;-94
2023/04/11 02:04:27;;;;;;;;;;;10.20;99.90;;;;;;5034666;28;19976;-93
2023/04/11 02:06:54;;;;;;;;;;;10.30;99.90;;;;;;5042126;28;19929;-92
2023/04/11 02:09:21;;;;;;;;;;;10.30;99.90;;;;;;5011925;28;19952;-92
2023/04/11 02:11:48;;;;;;;;;;;10.30;99.90;;;;;;5015970;28;19925;-89
2023/04/11 02:14:17;;;;;;;;;;;10.30;99.90;;;;;;5009151;28;19972;-89
2023/04/11 02:16:52;;;;;;;;;;;10.30;99.90;;;;;;5007551;28;19932;-91
2023/04/11 02:19:19;;;;;;;;;;;10.30;99.90;;;;;;5012287;28;19929;-87
2023/04/11 02:21:46;;;;;;;;;;;10.30;99.90;;;;;;5008777;28;20045;-89
2023/04/11 02:24:13;;;;;;;;;;;10.30;99.90;;;;;;5017185;28;19929;-89
2023/04/11 02:26:41;;;;;;;;;;;10.30;99.90;;;;;;5005652;28;19932;-87
2023/04/11 02:29:08;;;;;;;;;;;10.30;99.90;;;;;;5004805;28;19925;-89
2023/04/11 02:31:35;;;;;;;;;;;10.30;99.90;;;;;;5010228;28;19979;-88
2023/04/11 02:34:03;;;;;;;;;;;10.30;99.90;;;;;;5012065;28;19932;-89
2023/04/11 02:36:30;;;;;;;;;;;10.30;99.90;;;;;;5029960;28;19925;-89
2023/04/11 02:38:57;;;;;;;;;;;10.30;99.90;;;;;;5013612;28;20582;-89
2023/04/11 02:41:27;;;;;;;;;;;10.30;99.90;;;;;;5010659;28;19929;-89
2023/04/11 02:43:54;;;;;;;;;;;10.30;99.90;;;;;;5002861;28;19956;-91
2023/04/11 02:46:21;;;;;;;;;;;10.30;99.90;;;;;;5010916;28;20357;-88
2023/04/11 02:48:48;;;;;;;;;;;10.30;99.90;;;;;;5008982;28;20016;-89
2023/04/11 02:51:17;;;;;;;;;;;10.30;99.90;;;;;;5014645;28;20331;-87
2023/04/11 02:53:43;;;;;;;;;;;10.30;99.90;;;;;;5008532;28;20320;-88
2023/04/11 02:56:17;;;;;;;;;;;10.30;99.90;;;;;;5009741;28;20382;-89
2023/04/11 02:58:44;;;;;;;;;;;10.30;99.90;;;;;;5011207;28;20395;-90
2023/04/11 03:01:17;;;;;;;;;;;10.20;99.90;;;;;;5008431;28;19925;-90
2023/04/11 03:03:44;;;;;;;;;;;10.30;99.90;;;;;;5006777;28;19926;-89
2023/04/11 03:06:12;;;;;;;;;;;10.30;99.90;;;;;;5012164;28;19926;-89
2023/04/11 03:08:42;;;;;;;;;;;10.30;99.90;;;;;;5004604;28;19925;-89
2023/04/11 03:11:09;;;;;;;;;;;10.30;99.90;;;;;;5011518;28;19929;-91
2023/04/11 03:13:36;;;;;;;;;;;10.20;99.90;;;;;;5028098;28;19933;-89
2023/04/11 03:16:03;;;;;;;;;;;10.30;99.90;;;;;;5013009;28;20023;-90
2023/04/11 03:18:32;;;;;;;;;;;10.30;99.90;;;;;;5011472;28;19933;-89
2023/04/11 03:21:02;;;;;;;;;;;10.30;99.90;;;;;;5003920;28;19978;-89
2023/04/11 03:23:30;;;;;;;;;;;10.30;99.90;;;;;;5010541;28;20450;-88
2023/04/11 03:25:59;;;;;;;;;;;10.30;99.90;;;;;;5016066;28;20023;-91
2023/04/11 03:28:26;;;;;;;;;;;10.30;99.90;;;;;;5010889;28;19926;-87
2023/04/11 03:30:53;;;;;;;;;;;10.30;99.90;;;;;;5008214;28;19929;-89
2023/04/11 03:33:23;;;;;;;;;;;10.20;99.90;;;;;;5008743;28;20002;-89
2023/04/11 03:35:50;;;;;;;;;;;10.30;99.90;;;;;;5014124;28;20327;-88
2023/04/11 03:38:17;;;;;;;;;;;10.20;99.90;;;;;;5034068;28;19972;-88
2023/04/11 03:40:43;;;;;;;;;;;10.20;99.90;;;;;;5010975;28;20027;-89
2023/04/11 03:43:16;;;;;;;;;;;10.20;99.90;;;;;;5011031;28;20257;-90
2023/04/11 03:45:43;;;;;;;;;;;10.20;99.90;;;;;;5016087;28;20677;-91
2023/04/11 03:48:35;;;;;;;;;;;10.20;99.90;;;;;;5011020;28;19931;-89
2023/04/11 03:51:06;;;;;;;;;;;10.20;99.90;;;;;;5005002;28;19960;-90
2023/04/11 03:53:42;;;;;;;;;;;10.20;99.90;;;;;;5010953;28;19925;-89
2023/04/11 03:56:22;;;;;;;;;;;10.20;99.90;;;;;;5006575;28;19979;-88
2023/04/11 03:58:50;;;;;;;;;;;10.20;99.90;;;;;;5007428;28;19926;-88
2023/04/11 04:01:20;;;;;;;;;;;10.20;99.90;;;;;;5015161;28;20015;-88
2023/04/11 04:03:49;;;;;;;;;;;10.20;99.90;;;;;;4998022;28;19932;-87
2023/04/11 04:06:16;;;;;;;;;;;10.20;99.90;;;;;;5021547;28;19929;-90
2023/04/11 04:08:45;;;;;;;;;;;10.20;99.90;;;;;;5002263;28;19926;-88
2023/04/11 04:11:12;;;;;;;;;;;10.20;99.90;;;;;;5012489;28;19925;-87
2023/04/11 04:13:38;;;;;;;;;;;10.20;99.90;;;;;;5010654;28;19929;-87
2023/04/11 04:16:16;;;;;;;;;;;10.10;99.90;;;;;;5010165;28;19991;-92
2023/04/11 04:18:48;;;;;;;;;;;10.20;99.90;;;;;;5029946;28;19929;-90
2023/04/11 04:21:16;;;;;;;;;;;10.20;99.90;;;;;;5003055;28;19932;-89
2023/04/11 04:23:48;;;;;;;;;;;10.10;99.90;;;;;;5019313;28;19925;-89
2023/04/11 04:26:16;;;;;;;;;;;10.10;99.90;;;;;;5034288;28;20030;-88
2023/04/11 04:28:50;;;;;;;;;;;10.10;99.90;;;;;;5012388;28;19932;-88
2023/04/11 04:31:28;;;;;;;;;;;10.10;99.90;;;;;;5011153;28;19929;-88
2023/04/11 04:34:02;;;;;;;;;;;10.20;99.90;;;;;;5014246;28;20715;-88
2023/04/11 04:36:29;;;;;;;;;;;10.10;99.90;;;;;;5020400;28;19935;-89
2023/04/11 04:39:00;;;;;;;;;;;10.10;99.90;;;;;;5027218;28;19939;-90
2023/04/11 04:41:35;;;;;;;;;;;10.10;99.90;;;;;;5011440;28;20403;-88
2023/04/11 04:44:04;;;;;;;;;;;10.10;99.90;;;;;;5017941;28;19983;-89
2023/04/11 04:46:41;;;;;;;;;;;10.10;99.90;;;;;;5011548;28;19929;-90
2023/04/11 04:49:09;;;;;;;;;;;10.10;99.90;;;;;;5005096;28;19933;-93
2023/04/11 04:51:37;;;;;;;;;;;10.10;99.90;;;;;;5008104;28;20391;-90
2023/04/11 04:54:05;;;;;;;;;;;10.10;99.90;;;;;;5011634;28;19936;-91
2023/04/11 04:56:32;;;;;;;;;;;10.10;99.90;;;;;;5022555;28;19979;-90
2023/04/11 04:58:59;;;;;;;;;;;10.10;99.90;;;;;;5003445;28;19936;-91
2023/04/11 05:01:28;;;;;;;;;;;10.10;99.90;;;;;;5010266;28;19929;-88
2023/04/11 05:04:00;;;;;;;;;;;10.10;99.90;;;;;;5011936;28;19925;-88
2023/04/11 05:06:47;;;;;;;;;;;10.10;99.90;;;;;;5030353;28;19940;-90
2023/04/11 05:09:15;;;;;;;;;;;10.00;99.90;;;;;;5011745;28;20758;-88
2023/04/11 05:11:41;;;;;;;;;;;10.00;99.90;;;;;;5017828;28;19944;-89
2023/04/11 05:14:09;;;;;;;;;;;10.00;99.90;;;;;;5018969;28;20010;-90
2023/04/11 05:16:38;;;;;;;;;;;10.00;99.90;;;;;;5015982;28;19980;-90
2023/04/11 05:19:06;;;;;;;;;;;10.00;99.90;;;;;;5012417;28;19925;-89
2023/04/11 05:21:36;;;;;;;;;;;10.00;99.90;;;;;;5014982;28;19933;-91
2023/04/11 05:24:03;;;;;;;;;;;10.00;99.90;;;;;;5010879;28;19929;-91
2023/04/11 05:26:34;;;;;;;;;;;10.00;99.90;;;;;;5006096;28;19926;-90
2023/04/11 05:29:01;;;;;;;;;;;10.00;99.90;;;;;;5010022;28;19932;-91
2023/04/11 05:31:28;;;;;;;;;;;10.00;99.90;;;;;;5011303;28;19929;-90
2023/04/11 05:33:56;;;;;;;;;;;10.00;99.90;;;;;;5042350;28;19957;-93
2023/04/11 05:36:24;;;;;;;;;;;10.00;99.90;;;;;;5032652;28;19913;-92
2023/04/11 05:38:51;;;;;;;;;;;10.00;99.90;;;;;;5024332;28;19948;-91
2023/04/11 05:41:18;;;;;;;;;;;10.00;99.90;;;;;;5030189;28;20429;-90
2023/04/11 05:43:45;;;;;;;;;;;10.00;99.90;;;;;;5007281;28;19925;-90
2023/04/11 05:46:12;;;;;;;;;;;10.00;99.90;;;;;;5011003;28;19932;-89
2023/04/11 05:48:40;;;;;;;;;;;9.90;99.90;;;;;;5021469;28;19936;-90
2023/04/11 05:51:07;;;;;;;;;;;9.90;99.90;;;;;;5014418;28;20320;-91
2023/04/11 05:53:35;;;;;;;;;;;9.90;99.90;;;;;;5023907;28;19930;-90
2023/04/11 05:56:02;;;;;;;;;;;9.90;99.90;;;;;;5009581;28;20010;-90
2023/04/11 05:58:29;;;;;;;;;;;9.80;99.90;;;;;;5011592;28;19968;-91
2023/04/11 06:00:58;;;;;;;;;;;9.80;99.90;;;;;;5006772;28;19983;-89
2023/04/11 06:03:25;;;;;;;;;;;9.80;99.90;;;;;;5027509;28;19926;-90
2023/04/11 06:05:52;;;;;;;;;;;9.80;99.90;;;;;;5016830;28;19925;-90
2023/04/11 06:08:19;;;;;;;;;;;9.80;99.90;;;;;;5030110;28;19937;-91
2023/04/11 06:10:47;;;;;;;;;;;9.80;99.90;;;;;;5027332;28;19925;-89
2023/04/11 06:13:14;;;;;;;;;;;9.70;99.90;;;;;;5029812;28;19933;-90
2023/04/11 06:15:40;;;;;;;;;;;9.70;99.90;;;;;;5031589;28;19925;-90
2023/04/11 06:18:07;;;;;;;;;;;9.70;99.90;;;;;;5018103;28;20340;-91
2023/04/11 06:20:34;;;;;;;;;;;9.60;99.90;;;;;;5036547;28;19933;-90
2023/04/11 06:23:01;;;;;;;;;;;9.60;99.90;;;;;;5002119;28;20395;-90
2023/04/11 06:25:27;;;;;;;;;;;9.60;99.90;;;;;;5023756;28;19924;-91
2023/04/11 06:27:56;;;;;;;;;;;9.60;99.90;;;;;;5008923;28;19967;-92
2023/04/11 06:30:23;;;;;;;;;;;9.50;99.90;;;;;;5002472;28;19929;-92
2023/04/11 06:32:50;;;;;;;;;;;9.50;99.90;;;;;;5010254;28;19930;-91
2023/04/11 06:35:19;;;;;;;;;;;9.50;99.90;;;;;;5013259;28;19982;-91
2023/04/11 06:37:46;;;;;;;;;;;9.50;99.90;;;;;;5031936;28;19968;-93
2023/04/11 06:40:13;;;;;;;;;;;9.50;99.90;;;;;;5004414;28;19933;-91
2023/04/11 06:42:40;;;;;;;;;;;9.50;99.90;;;;;;5007329;28;19929;-91
2023/04/11 06:45:09;;;;;;;;;;;9.40;99.90;;;;;;5025426;28;19948;-92
2023/04/11 06:47:36;;;;;;;;;;;9.40;99.90;;;;;;5002472;28;20015;-92
2023/04/11 06:50:02;;;;;;;;;;;9.30;99.90;;;;;;5032500;28;19968;-93
2023/04/11 06:52:30;;;;;;;;;;;9.30;99.90;;;;;;5030947;28;20362;-91
2023/04/11 06:54:57;;;;;;;;;;;9.30;99.90;;;;;;5007880;28;20015;-91
2023/04/11 06:57:23;;;;;;;;;;;9.30;99.90;;;;;;5030056;28;19931;-90
2023/04/11 06:59:50;;;;;;;;;;;9.30;99.90;;;;;;5013155;28;20479;-94
2023/04/11 07:02:18;;;;;;;;;;;9.30;99.90;;;;;;5020406;28;19933;-92
2023/04/11 07:04:45;;;;;;;;;;;9.30;99.90;;;;;;5009589;28;19931;-95
2023/04/11 07:07:12;;;;;;;;;;;9.20;99.90;;;;;;5009248;28;19969;-93
2023/04/11 07:09:39;;;;;;;;;;;9.20;99.90;;;;;;5025943;28;19933;-92
2023/04/11 07:12:06;;;;;;;;;;;9.10;99.90;;;;;;5030776;28;19925;-92
2023/04/11 07:14:33;;;;;;;;;;;9.10;99.90;;;;;;5033234;28;19925;-91
2023/04/11 07:17:00;;;;;;;;;;;9.10;99.90;;;;;;5012680;28;19933;-91
2023/04/11 07:19:28;;;;;;;;;;;9.10;99.90;;;;;;5004671;28;19964;-93
2023/04/11 07:21:55;;;;;;;;;;;9.10;99.90;;;;;;5030820;28;19925;-93
2023/04/11 07:24:22;;;;;;;;;;;9.10;99.90;;;;;;5007503;28;19925;-91
2023/04/11 07:26:50;;;;;;;;;;;9.10;99.90;;;;;;5025788;28;19947;-94
2023/04/11 07:29:17;;;;;;;;;;;9.00;99.90;;;;;;5022218;28;20408;-93
2023/04/11 07:31:44;;;;;;;;;;;9.00;99.90;;;;;;5011843;28;19940;-91
2023/04/11 07:34:11;;;;;;;;;;;9.00;99.90;;;;;;5005347;28;20406;-91
2023/04/11 07:36:40;;;;;;;;;;;9.00;99.90;;;;;;5032086;28;20391;-92
2023/04/11 07:39:11;;;;;;;;;;;9.00;99.90;;;;;;5025518;28;20410;-90
2023/04/11 07:41:37;;;;;;;;;;;9.00;99.90;;;;;;5029375;28;19925;-93
2023/04/11 07:44:06;;;;;;;;;;;9.00;99.90;;;;;;5032786;28;19975;-91
2023/04/11 07:46:33;;;;;;;;;;;9.00;99.90;;;;;;5029046;28;20422;-91
2023/04/11 07:49:00;;;;;;;;;;;8.90;99.90;;;;;;5022016;28;19955;-91
2023/04/11 07:51:27;;;;;;;;;;;8.90;99.90;;;;;;5027029;28;20388;-91
2023/04/11 07:53:55;;;;;;;;;;;8.90;99.90;;;;;;5026490;28;20354;-91
2023/04/11 07:56:22;;;;;;;;;;;8.90;99.90;;;;;;5024737;28;19925;-94
2023/04/11 07:58:48;;;;;;;;;;;8.90;99.90;;;;;;5029559;28;19931;-91
2023/04/11 08:01:22;;;;;;;;;;;8.90;99.90;;;;;;5027013;28;20313;-91
2023/04/11 08:03:49;;;;;;;;;;;8.80;99.90;;;;;;5010717;28;20354;-90
2023/04/11 08:06:16;;;;;;;;;;;8.90;99.90;;;;;;5016411;28;19926;-94
2023/04/11 08:08:44;;;;;;;;;;;8.80;99.90;;;;;;5017253;28;19933;-93
2023/04/11 08:11:12;;;;;;;;;;;8.90;99.90;;;;;;5029674;28;19926;-92
2023/04/11 08:13:39;;;;;;;;;;;8.80;99.90;;;;;;5011449;28;19933;-90
2023/04/11 08:16:07;;;;;;;;;;;8.80;99.90;;;;;;5017372;28;19940;-94
2023/04/11 08:18:35;;;;;;;;;;;8.80;99.90;;;;;;5016030;28;19925;-91
2023/04/11 08:21:02;;;;;;;;;;;8.80;99.90;;;;;;5010295;28;19948;-90
2023/04/11 08:23:29;;;;;;;;;;;8.80;99.90;;;;;;5008544;28;19930;-91
2023/04/11 08:25:56;;;;;;;;;;;8.80;99.90;;;;;;5010471;28;19929;-92
2023/04/11 08:28:25;;;;;;;;;;;8.80;99.90;;;;;;5027925;28;19930;-92
2023/04/11 08:30:54;;;;;;;;;;;8.80;99.90;;;;;;5023433;28;20386;-91
2023/04/11 08:33:22;;;;;;;;;;;8.80;99.90;;;;;;5009809;28;19964;-90
2023/04/11 08:35:50;;;;;;;;;;;8.80;99.90;;;;;;5035277;28;19929;-93
2023/04/11 08:38:16;;;;;;;;;;;8.80;99.90;;;;;;5023038;28;19925;-91
2023/04/11 08:40:43;;;;;;;;;;;8.80;99.90;;;;;;5022917;28;19932;-92
2023/04/11 08:43:11;;;;;;;;;;;8.80;99.90;;;;;;5037083;28;19924;-92
2023/04/11 08:45:40;;;;;;;;;;;8.80;99.90;;;;;;5035900;28;19925;-91
2023/04/11 08:48:07;;;;;;;;;;;8.80;99.90;;;;;;5008157;28;19925;-90
2023/04/11 08:50:34;;;;;;;;;;;8.80;99.90;;;;;;5025010;28;19933;-93
2023/04/11 08:53:01;;;;;;;;;;;8.80;99.90;;;;;;5009104;28;20411;-93
2023/04/11 08:55:28;;;;;;;;;;;8.80;99.90;;;;;;5030653;28;20020;-91
2023/04/11 08:57:58;;;;;;;;;;;8.80;99.90;;;;;;5021881;28;19979;-92
2023/04/11 09:00:25;;;;;;;;;;;8.80;99.90;;;;;;5030422;28;20383;-91
2023/04/11 09:02:57;;;;;;;;;;;8.80;99.90;;;;;;5025453;28;19936;-91
2023/04/11 09:05:24;;;;;;;;;;;8.80;99.90;;;;;;5009352;28;20516;-92
2023/04/11 09:07:51;;;;;;;;;;;8.80;99.90;;;;;;5016329;28;20180;-91
2023/04/11 09:10:18;;;;;;;;;;;8.80;99.90;;;;;;5030892;28;19971;-92
2023/04/11 09:12:45;;;;;;;;;;;8.80;99.90;;;;;;5014528;28;19926;-95
2023/04/11 09:15:17;;;;;;;;;;;8.80;99.90;;;;;;5033600;28;20139;-92
2023/04/11 09:17:44;;;;;;;;;;;8.70;99.90;;;;;;5041585;28;19929;-95
2023/04/11 09:20:17;;;;;;;;;;;8.70;99.90;;;;;;5044634;28;19926;-93
2023/04/11 09:22:44;;;;;;;;;;;8.70;99.90;;;;;;5023816;28;19932;-91
2023/04/11 09:25:10;;;;;;;;;;;8.80;99.90;;;;;;5011856;28;19932;-92
2023/04/11 09:27:37;;;;;;;;;;;8.70;99.90;;;;;;5014340;28;19929;-92
2023/04/11 09:30:05;;;;;;;;;;;8.80;99.90;;;;;;5007192;28;19929;-92
2023/04/11 09:32:33;;;;;;;;;;;8.80;99.90;;;;;;5023571;28;19936;-94
2023/04/11 09:35:09;;;;;;;;;;;8.80;99.90;;;;;;5010531;28;19925;-90
2023/04/11 09:37:45;;;;;;;;;;;8.70;99.90;;;;;;5018833;28;19925;-92
2023/04/11 09:40:13;;;;;;;;;;;8.80;99.90;;;;;;5016819;28;20007;-92
2023/04/11 09:42:41;;;;;;;;;;;8.80;99.90;;;;;;5013004;28;19936;-92
2023/04/11 09:45:15;;;;;;;;;;;8.80;99.90;;;;;;5027486;28;19929;-91
2023/04/11 09:47:42;;;;;;;;;;;8.80;99.90;;;;;;5011442;28;19933;-90
2023/04/11 09:50:09;;;;;;;;;;;8.80;99.90;;;;;;5032715;28;20020;-92
2023/04/11 09:52:36;;;;;;;;;;;8.80;99.90;;;;;;5023226;28;19988;-90
2023/04/11 09:55:06;;;;;;;;;;;8.80;99.90;;;;;;5029946;28;20012;-92
2023/04/11 09:57:34;;;;;;;;;;;8.80;99.90;;;;;;5002826;28;19929;-91
2023/04/11 10:00:08;;;;;;;;;;;8.80;99.90;;;;;;5011611;28;19929;-91
2023/04/11 10:02:38;;;;;;;;;;;8.80;99.90;;;;;;5019384;28;19933;-91
2023/04/11 10:05:06;;;;;;;;;;;8.80;99.90;;;;;;5012803;28;19925;-90
2023/04/11 10:07:34;;;;;;;;;;;8.80;99.90;;;;;;5033677;28;20418;-91
2023/04/11 10:10:01;;;;;;;;;;;8.80;99.90;;;;;;5012812;28;20204;-90
2023/04/11 10:12:32;;;;;;;;;;;8.80;99.90;;;;;;5017354;28;19925;-92
2023/04/11 10:15:05;;;;;;;;;;;8.80;99.90;;;;;;5036231;28;19944;-92
2023/04/11 10:17:32;;;;;;;;;;;8.90;99.90;;;;;;5030985;28;19933;-90
2023/04/11 10:19:59;;;;;;;;;;;8.90;99.90;;;;;;5014375;28;19983;-90
2023/04/11 10:22:45;;;;;;;;;;;8.90;99.90;;;;;;5023940;28;20020;-90
2023/04/11 10:25:15;;;;;;;;;;;8.90;99.90;;;;;;5030836;28;19932;-93
2023/04/11 10:27:47;;;;;;;;;;;8.90;99.90;;;;;;5012178;28;19999;-92
2023/04/11 10:30:14;;;;;;;;;;;8.90;99.90;;;;;;5009879;28;19929;-92
2023/04/11 10:32:41;;;;;;;;;;;8.90;99.90;;;;;;5009936;28;19925;-91
2023/04/11 10:35:21;;;;;;;;;;;8.90;99.90;;;;;;5031684;28;20299;-92
2023/04/11 10:37:49;;;;;;;;;;;8.90;99.90;;;;;;5034693;28;19951;-93
2023/04/11 10:40:19;;;;;;;;;;;8.90;99.90;;;;;;5024567;28;19925;-90
2023/04/11 10:42:48;;;;;;;;;;;9.00;99.90;;;;;;5014724;28;19925;-94
2023/04/11 10:45:23;;;;;;;;;;;9.00;99.90;;;;;;5017330;28;20014;-91
2023/04/11 10:48:04;;;;;;;;;;;9.00;99.90;;;;;;5008911;28;20016;-91
2023/04/11 10:50:35;;;;;;;;;;;9.00;99.90;;;;;;5019845;28;19964;-93
2023/04/11 10:53:03;;;;;;;;;;;9.00;99.90;;;;;;5030836;28;20409;-92
2023/04/11 10:55:31;;;;;;;;;;;9.00;99.90;;;;;;5009697;28;19925;-91
2023/04/11 10:58:06;;;;;;;;;;;9.00;99.90;;;;;;5011058;28;20022;-91
2023/04/11 11:00:48;;;;;;;;;;;9.00;99.90;;;;;;5028631;28;19964;-92
2023/04/11 11:03:15;;;;;;;;;;;9.00;99.90;;;;;;5008757;28;19929;-90
2023/04/11 11:05:42;;;;;;;;;;;9.00;99.90;;;;;;5003252;28;19975;-92
2023/04/11 11:08:09;;;;;;;;;;;9.00;99.90;;;;;;5034662;28;19924;-93
2023/04/11 11:10:37;;;;;;;;;;;9.00;99.90;;;;;;5024503;28;19932;-94
2023/04/11 11:13:04;;;;;;;;;;;9.10;99.90;;;;;;5036493;28;19933;-89
2023/04/11 11:15:36;;;;;;;;;;;9.10;99.90;;;;;;5006688;28;19986;-92
2023/04/11 11:18:03;;;;;;;;;;;9.10;99.90;;;;;;5014959;28;19926;-91
2023/04/11 11:20:30;;;;;;;;;;;9.10;99.90;;;;;;5009312;28;20379;-90
2023/04/11 11:22:58;;;;;;;;;;;9.10;99.90;;;;;;5012652;28;20301;-92
2023/04/11 11:25:26;;;;;;;;;;;9.10;99.90;;;;;;5023700;28;20477;-91
2023/04/11 11:28:01;;;;;;;;;;;9.10;99.90;;;;;;5024219;28;20198;-92
2023/04/11 11:30:28;;;;;;;;;;;9.10;99.90;;;;;;5028497;28;19933;-91
2023/04/11 11:32:57;;;;;;;;;;;9.20;99.90;;;;;;5029218;28;19929;-93
2023/04/11 11:35:24;;;;;;;;;;;9.10;99.90;;;;;;5031736;28;19929;-92
2023/04/11 11:37:52;;;;;;;;;;;9.20;99.90;;;;;;5011639;28;19961;-90
2023/04/11 11:40:20;;;;;;;;;;;9.20;99.90;;;;;;5006364;28;19929;-92
2023/04/11 11:42:48;;;;;;;;;;;9.20;99.90;;;;;;5013028;28;20314;-90
2023/04/11 11:45:15;;;;;;;;;;;9.20;99.90;;;;;;5029404;28;19931;-91
2023/04/11 11:47:42;;;;;;;;;;;9.20;99.90;;;;;;5008652;28;20648;-91
2023/04/11 11:50:11;;;;;;;;;;;9.30;99.90;;;;;;5023397;28;19925;-93
2023/04/11 11:52:39;;;;;;;;;;;9.30;99.90;;;;;;5021848;28;20415;-92
2023/04/11 11:55:08;;;;;;;;;;;9.30;99.90;;;;;;5008973;28;19971;-92
2023/04/11 11:57:36;;;;;;;;;;;9.30;99.90;;;;;;5027199;28;20396;-91
2023/04/11 12:00:05;;;;;;;;;;;9.30;99.90;;;;;;5003530;28;19925;-92
2023/04/11 12:02:34;;;;;;;;;;;9.40;99.90;;;;;;5024374;28;20167;-92
2023/04/11 12:05:02;;;;;;;;;;;9.40;99.90;;;;;;5028902;28;19925;-92
2023/04/11 12:07:32;;;;;;;;;;;9.40;99.90;;;;;;5013673;28;19929;-92
2023/04/11 12:09:59;;;;;;;;;;;9.40;99.90;;;;;;5010485;28;20380;-90
2023/04/11 12:12:33;;;;;;;;;;;9.50;99.90;;;;;;5025798;28;21082;-93
2023/04/11 12:15:00;;;;;;;;;;;9.50;99.90;;;;;;5004667;28;19929;-90
2023/04/11 12:17:31;;;;;;;;;;;9.50;99.90;;;;;;5008737;28;20011;-91
2023/04/11 12:19:58;;;;;;;;;;;9.50;99.90;;;;;;5014458;28;19925;-91
2023/04/11 12:22:25;;;;;;;;;;;9.50;99.90;;;;;;5027443;28;20288;-92
2023/04/11 12:25:03;;;;;;;;;;;9.60;99.90;;;;;;5022109;28;19933;-90
2023/04/11 12:27:31;;;;;;;;;;;9.60;99.90;;;;;;5027558;28;19931;-90
2023/04/11 12:29:59;;;;;;;;;;;9.60;99.90;;;;;;5034297;28;19980;-92
2023/04/11 12:32:27;;;;;;;;;;;9.60;99.90;;;;;;5028133;28;19931;-93
2023/04/11 12:34:53;;;;;;;;;;;9.60;99.90;;;;;;5037594;28;20044;-92
2023/04/11 12:37:20;;;;;;;;;;;9.60;99.90;;;;;;5027943;28;19925;-91
2023/04/11 12:39:48;;;;;;;;;;;9.60;99.90;;;;;;5012904;28;19947;-92
2023/04/11 12:42:16;;;;;;;;;;;9.70;99.90;;;;;;5007643;28;20558;-91
2023/04/11 12:44:43;;;;;;;;;;;9.70;99.90;;;;;;5036559;28;20238;-91
2023/04/11 12:47:11;;;;;;;;;;;9.70;99.90;;;;;;5023667;28;20016;-89
2023/04/11 12:49:38;;;;;;;;;;;9.80;99.90;;;;;;5028187;28;19979;-92
2023/04/11 12:52:05;;;;;;;;;;;9.80;99.90;;;;;;5013442;28;19933;-91
2023/04/11 12:54:32;;;;;;;;;;;9.80;99.90;;;;;;5034659;28;19949;-95
2023/04/11 12:56:59;;;;;;;;;;;9.80;99.90;;;;;;5059018;28;19924;-94
2023/04/11 12:59:30;;;;;;;;;;;9.80;99.90;;;;;;5031460;28;19964;-92
2023/04/11 13:01:57;;;;;;;;;;;9.80;99.90;;;;;;5012266;28;20376;-92
2023/04/11 13:04:24;;;;;;;;;;;9.80;99.90;;;;;;5025237;28;19925;-92
2023/04/11 13:06:51;;;;;;;;;;;9.80;99.90;;;;;;5027562;28;19932;-91
2023/04/11 13:09:18;;;;;;;;;;;9.80;99.90;;;;;;5015016;28;19952;-91
2023/04/11 13:11:45;;;;;;;;;;;9.90;99.90;;;;;;5016743;28;19925;-91
2023/04/11 13:14:12;;;;;;;;;;;9.90;99.90;;;;;;5003789;28;19933;-91
2023/04/11 13:16:40;;;;;;;;;;;9.90;99.90;;;;;;5026001;28;19969;-92
2023/04/11 13:19:06;;;;;;;;;;;9.90;99.90;;;;;;5013080;28;21495;-92
2023/04/11 13:21:33;;;;;;;;;;;9.90;99.90;;;;;;5016825;28;19984;-92
2023/04/11 13:24:00;;;;;;;;;;;9.90;99.90;;;;;;5029000;28;19933;-93
2023/04/11 13:26:28;;;;;;;;;;;9.90;99.90;;;;;;5010203;28;19981;-91
2023/04/11 13:28:56;;;;;;;;;;;9.90;99.90;;;;;;5002915;28;19972;-91
2023/04/11 13:31:25;;;;;;;;;;;9.90;99.90;;;;;;5023157;28;19927;-90
2023/04/11 13:33:53;;;;;;;;;;;10.00;99.90;;;;;;5012363;28;19929;-93
2023/04/11 13:36:20;;;;;;;;;;;10.00;99.90;;;;;;5033413;28;19978;-90
2023/04/11 13:38:47;;;;;;;;;;;10.00;99.90;;;;;;5010244;28;19932;-93
2023/04/11 13:41:14;;;;;;;;;;;10.10;99.90;;;;;;5013112;28;19960;-92
2023/04/11 13:43:51;;;;;;;;;;;10.10;99.90;;;;;;5014774;28;19925;-92
2023/04/11 13:46:18;;;;;;;;;;;10.10;99.90;;;;;;5032607;28;19925;-92
2023/04/11 13:48:45;;;;;;;;;;;10.10;99.90;;;;;;5024619;28;19925;-90
2023/04/11 13:51:13;;;;;;;;;;;10.10;99.90;;;;;;5013974;28;19926;-92
2023/04/11 13:53:40;;;;;;;;;;;10.10;99.90;;;;;;5029517;28;20340;-93
2023/04/11 13:56:07;;;;;;;;;;;10.10;99.90;;;;;;5009356;28;19925;-90
2023/04/11 13:58:34;;;;;;;;;;;10.10;99.90;;;;;;5001713;28;20016;-92
2023/04/11 14:01:10;;;;;;;;;;;10.10;99.90;;;;;;5027083;28;20019;-90
2023/04/11 14:03:37;;;;;;;;;;;10.20;99.90;;;;;;5052575;28;19936;-91
2023/04/11 14:06:04;;;;;;;;;;;10.20;99.90;;;;;;5012383;28;19937;-92
2023/04/11 14:08:37;;;;;;;;;;;10.20;99.90;;;;;;5020175;28;20318;-94
2023/04/11 14:11:04;;;;;;;;;;;10.20;99.90;;;;;;4999626;28;19929;-93
2023/04/11 14:13:31;;;;;;;;;;;10.20;99.90;;;;;;5003276;28;19968;-80
2023/04/11 14:15:58;;;;;;;;;;;10.30;99.90;;;;;;5039426;23;19977;-76
2023/04/11 14:18:25;;;;;;;;;;;10.30;99.90;;;;;;4976944;28;19926;-76
2023/04/11 14:20:52;;;;;;;;;;;10.30;99.90;;;;;;4982198;28;19934;-77
2023/04/11 14:23:20;;;;;;;;;;;10.30;99.90;;;;;;4980260;28;20008;-78
2023/04/11 14:25:48;;;;;;;;;;;10.30;99.90;;;;;;4984817;28;19961;-77
2023/04/11 14:28:16;;;;;;;;;;;10.30;99.90;;;;;;4980001;28;20475;-77
2023/04/11 14:30:43;;;;;;;;;;;10.30;99.90;;;;;;4982814;28;20012;-77